Time;durP1;ratioP1;P1;durP2;ratioP2;P2;SDS_P1;SDS_P2;PMS_P1;PMS_P2;Temp;Humidity;BMP_temperature;BMP_pressure;BME280_temperature;BME280_humidity;BME280_pressure;Samples;Min_cycle;Max_cycle;Signal;HPM_P1;HPM_P2
2022/08/26 00:02:23;;;;;;;8.68;5.72;;;21.10;99.90;;;;;;623441;230;26580;-66
2022/08/26 00:04:50;;;;;;;10.18;5.75;;;21.10;99.90;;;;;;623510;230;26771;-66
2022/08/26 00:07:17;;;;;;;9.85;5.30;;;21.10;99.90;;;;;;623415;230;26556;-66
2022/08/26 00:09:44;;;;;;;11.15;6.22;;;21.10;99.90;;;;;;623316;230;26778;-65
2022/08/26 00:12:12;;;;;;;6.75;4.90;;;21.00;99.90;;;;;;623423;230;26563;-65
2022/08/26 00:14:39;;;;;;;8.27;4.78;;;21.00;99.90;;;;;;623449;231;26805;-66
2022/08/26 00:17:06;;;;;;;4.28;3.95;;;21.00;99.90;;;;;;623528;230;26549;-63
2022/08/26 00:19:34;;;;;;;7.97;5.78;;;20.90;99.90;;;;;;623431;231;26805;-65
2022/08/26 00:22:01;;;;;;;5.93;5.32;;;20.90;99.90;;;;;;623445;231;26592;-66
2022/08/26 00:24:28;;;;;;;12.37;5.90;;;20.90;99.90;;;;;;623471;231;26832;-66
2022/08/26 00:26:55;;;;;;;12.07;6.28;;;20.80;99.90;;;;;;623472;230;26566;-66
2022/08/26 00:29:22;;;;;;;8.20;5.68;;;20.80;99.90;;;;;;623511;231;26765;-66
2022/08/26 00:31:50;;;;;;;8.90;5.22;;;20.80;99.90;;;;;;623520;231;26588;-66
2022/08/26 00:34:18;;;;;;;10.27;4.60;;;20.90;99.90;;;;;;623451;231;26819;-66
2022/08/26 00:36:45;;;;;;;6.78;5.25;;;20.90;99.90;;;;;;624821;228;26815;-66
2022/08/26 00:39:12;;;;;;;9.13;5.40;;;20.80;99.90;;;;;;624719;230;26588;-66
2022/08/26 00:41:39;;;;;;;8.88;5.53;;;20.80;99.90;;;;;;624233;230;26999;-66
2022/08/26 00:44:06;;;;;;;5.35;4.85;;;20.80;99.90;;;;;;624348;230;26612;-66
2022/08/26 00:46:34;;;;;;;5.05;4.47;;;20.80;99.90;;;;;;623965;230;26560;-66
2022/08/26 00:49:03;;;;;;;10.00;5.90;;;20.70;99.90;;;;;;623878;230;26606;-66
2022/08/26 00:51:31;;;;;;;6.97;4.85;;;20.70;99.90;;;;;;623642;227;26642;-66
2022/08/26 00:54:02;;;;;;;6.82;5.10;;;20.70;99.90;;;;;;623930;230;26835;-66
2022/08/26 00:56:31;;;;;;;5.90;4.80;;;20.70;99.90;;;;;;623011;229;26790;-66
2022/08/26 00:58:58;;;;;;;8.68;4.87;;;20.70;99.90;;;;;;623508;230;26563;-66
2022/08/26 01:01:27;;;;;;;5.82;5.32;;;20.70;99.90;;;;;;623638;227;26820;-66
2022/08/26 01:03:52;;;;;;;5.93;4.75;;;20.70;99.90;;;;;;623646;231;26541;-66
2022/08/26 01:06:20;;;;;;;6.15;4.62;;;20.60;99.90;;;;;;623752;231;26783;-66
2022/08/26 01:08:47;;;;;;;8.18;5.15;;;20.60;99.90;;;;;;623649;230;26561;-66
2022/08/26 01:11:14;;;;;;;6.18;5.28;;;20.60;99.90;;;;;;623690;227;26872;-66
2022/08/26 01:13:42;;;;;;;7.87;5.50;;;20.60;99.90;;;;;;623431;231;26556;-66
2022/08/26 01:16:10;;;;;;;7.03;5.18;;;20.70;99.90;;;;;;623431;231;26569;-66
2022/08/26 01:18:37;;;;;;;8.70;5.28;;;20.70;99.90;;;;;;623718;231;26613;-66
2022/08/26 01:21:07;;;;;;;6.43;5.18;;;20.70;99.90;;;;;;623708;231;26569;-66
2022/08/26 01:23:35;;;;;;;8.35;5.15;;;20.70;99.90;;;;;;623148;230;26762;-66
2022/08/26 01:26:07;;;;;;;10.57;5.40;;;20.80;99.90;;;;;;623509;231;26552;-66
2022/08/26 01:28:34;;;;;;;7.22;4.95;;;20.80;99.90;;;;;;623286;231;26569;-66
2022/08/26 01:31:01;;;;;;;7.47;5.32;;;20.80;99.90;;;;;;623432;227;26817;-66
2022/08/26 01:33:29;;;;;;;7.05;4.70;;;20.80;99.90;;;;;;623379;230;26556;-66
2022/08/26 01:35:56;;;;;;;7.10;4.72;;;20.80;99.90;;;;;;623143;230;27152;-66
2022/08/26 01:38:24;;;;;;;6.20;4.62;;;20.90;99.90;;;;;;623478;230;26565;-66
2022/08/26 01:40:51;;;;;;;6.07;4.72;;;20.90;99.90;;;;;;623377;227;27137;-66
2022/08/26 01:43:19;;;;;;;9.18;5.00;;;20.90;99.90;;;;;;623452;231;26540;-66
2022/08/26 01:45:47;;;;;;;6.20;4.60;;;20.90;99.90;;;;;;623179;231;26570;-66
2022/08/26 01:48:14;;;;;;;8.73;6.22;;;20.90;99.90;;;;;;624645;228;26853;-66
2022/08/26 01:50:41;;;;;;;7.78;5.00;;;20.90;99.90;;;;;;624462;230;26630;-66
2022/08/26 01:53:09;;;;;;;10.60;5.60;;;20.90;99.90;;;;;;624472;230;26834;-66
2022/08/26 01:55:36;;;;;;;7.82;5.20;;;20.90;99.90;;;;;;624333;230;27347;-66
2022/08/26 01:58:04;;;;;;;6.28;5.10;;;20.90;99.90;;;;;;623943;230;26598;-66
2022/08/26 02:00:31;;;;;;;9.30;5.07;;;20.80;99.90;;;;;;623593;230;26811;-66
2022/08/26 02:05:32;;;;;;;6.82;5.37;;;20.70;99.90;;;;;;623948;230;26953;-66
2022/08/26 02:07:59;;;;;;;6.12;4.87;;;20.70;99.90;;;;;;623717;231;26813;-66
2022/08/26 02:10:26;;;;;;;9.70;6.12;;;20.70;99.90;;;;;;623682;230;26583;-66
2022/08/26 02:12:54;;;;;;;5.85;5.28;;;20.60;99.90;;;;;;623735;230;27111;-66
2022/08/26 02:15:21;;;;;;;9.05;5.78;;;20.60;99.90;;;;;;623770;230;26560;-66
2022/08/26 02:17:48;;;;;;;6.72;5.07;;;20.60;99.90;;;;;;623782;231;26791;-66
2022/08/26 02:20:15;;;;;;;10.70;4.90;;;20.50;99.90;;;;;;623686;231;26564;-66
2022/08/26 02:22:43;;;;;;;8.38;5.57;;;20.50;99.90;;;;;;623711;230;26813;-66
2022/08/26 02:25:26;;;;;;;6.60;4.87;;;20.50;99.90;;;;;;623320;230;26564;-66
2022/08/26 02:27:55;;;;;;;8.68;5.72;;;20.40;99.90;;;;;;623467;231;26557;-66
2022/08/26 02:30:20;;;;;;;9.50;5.37;;;20.50;99.90;;;;;;623669;230;26592;-66
2022/08/26 02:32:48;;;;;;;9.30;5.85;;;20.40;99.90;;;;;;623741;230;26541;-66
2022/08/26 02:35:16;;;;;;;7.85;5.35;;;20.40;99.90;;;;;;623834;231;26523;-66
2022/08/26 02:37:44;;;;;;;8.77;6.18;;;20.40;99.90;;;;;;623806;231;26529;-66
2022/08/26 02:40:12;;;;;;;6.15;5.25;;;20.40;99.90;;;;;;623418;227;26548;-66
2022/08/26 02:42:39;;;;;;;8.32;5.18;;;20.40;99.90;;;;;;623468;231;26557;-66
2022/08/26 02:45:08;;;;;;;6.78;5.53;;;20.40;99.90;;;;;;623514;230;26560;-66
2022/08/26 02:47:35;;;;;;;6.57;5.43;;;20.40;99.90;;;;;;623411;230;26568;-66
2022/08/26 02:50:03;;;;;;;6.90;5.40;;;20.40;99.90;;;;;;623392;230;26522;-66
2022/08/26 02:52:30;;;;;;;5.37;4.80;;;20.40;99.90;;;;;;623449;231;26555;-66
2022/08/26 02:54:57;;;;;;;5.28;4.75;;;20.40;99.90;;;;;;623424;231;27442;-66
2022/08/26 02:57:24;;;;;;;5.72;4.70;;;20.30;99.90;;;;;;623451;231;26517;-66
2022/08/26 02:59:52;;;;;;;7.22;5.25;;;20.30;99.90;;;;;;624733;228;26847;-66
2022/08/26 03:02:20;;;;;;;8.07;5.10;;;20.30;99.90;;;;;;624785;230;27080;-66
2022/08/26 03:04:47;;;;;;;7.00;4.75;;;20.30;99.90;;;;;;624397;230;26586;-66
2022/08/26 03:07:14;;;;;;;6.32;5.60;;;20.30;99.90;;;;;;624343;230;26824;-66
2022/08/26 03:09:41;;;;;;;5.65;5.05;;;20.30;99.90;;;;;;624035;230;26586;-66
2022/08/26 03:12:08;;;;;;;6.60;4.80;;;20.30;99.90;;;;;;624010;230;26816;-66
2022/08/26 03:14:35;;;;;;;7.00;5.72;;;20.30;99.90;;;;;;624006;230;26564;-66
2022/08/26 03:17:02;;;;;;;7.43;5.25;;;20.30;99.90;;;;;;623876;230;26597;-66
2022/08/26 03:19:30;;;;;;;5.93;5.03;;;20.30;99.90;;;;;;623578;231;26559;-66
2022/08/26 03:21:58;;;;;;;6.07;5.47;;;20.30;99.90;;;;;;623460;230;26849;-66
2022/08/26 03:24:25;;;;;;;8.80;5.65;;;20.40;99.90;;;;;;623587;231;26563;-67
2022/08/26 03:26:52;;;;;;;7.72;5.20;;;20.40;99.90;;;;;;623736;231;26811;-67
2022/08/26 03:31:53;;;;;;;6.68;4.93;;;20.40;99.90;;;;;;623733;231;26595;-67
2022/08/26 03:34:21;;;;;;;6.68;5.20;;;20.30;99.90;;;;;;623620;230;26552;-67
2022/08/26 03:36:48;;;;;;;7.40;4.95;;;20.30;99.90;;;;;;623434;231;26521;-67
2022/08/26 03:39:16;;;;;;;6.43;5.57;;;20.30;99.90;;;;;;623419;231;26540;-67
2022/08/26 03:41:44;;;;;;;6.32;5.20;;;20.30;99.90;;;;;;623422;230;26572;-67
2022/08/26 03:44:11;;;;;;;6.90;5.35;;;20.30;99.90;;;;;;623414;231;26560;-67
2022/08/26 03:46:38;;;;;;;7.82;5.47;;;20.30;99.90;;;;;;623411;231;26555;-67
2022/08/26 03:49:05;;;;;;;5.90;5.40;;;20.30;99.90;;;;;;623414;231;26784;-67
2022/08/26 03:51:33;;;;;;;6.53;5.20;;;20.30;99.90;;;;;;623427;227;26584;-67
2022/08/26 03:54:01;;;;;;;8.32;5.28;;;20.30;99.90;;;;;;623466;230;26904;-67
2022/08/26 03:56:27;;;;;;;6.72;4.90;;;20.30;99.90;;;;;;623266;230;26606;-67
2022/08/26 03:58:54;;;;;;;7.57;4.75;;;20.30;99.90;;;;;;623734;231;26767;-67
2022/08/26 04:01:21;;;;;;;5.40;4.90;;;20.30;99.90;;;;;;623835;230;26626;-67
2022/08/26 04:06:25;;;;;;;5.95;4.90;;;20.20;99.90;;;;;;623862;231;26525;-67
2022/08/26 04:08:53;;;;;;;6.65;5.10;;;20.20;99.90;;;;;;623459;231;26557;-67
2022/08/26 04:11:20;;;;;;;5.20;4.70;;;20.20;99.90;;;;;;624557;228;26881;-67
2022/08/26 04:13:47;;;;;;;6.68;5.28;;;20.20;99.90;;;;;;624623;230;26608;-67
2022/08/26 04:16:15;;;;;;;10.18;5.30;;;20.10;99.90;;;;;;624210;230;26826;-67
2022/08/26 04:18:42;;;;;;;6.62;5.10;;;20.10;99.90;;;;;;624332;230;26617;-67
2022/08/26 04:21:10;;;;;;;7.60;5.78;;;20.10;99.90;;;;;;623945;230;26797;-67
2022/08/26 04:23:37;;;;;;;9.07;6.03;;;20.20;99.90;;;;;;623952;230;26529;-67
2022/08/26 04:26:05;;;;;;;8.70;6.55;;;20.20;99.90;;;;;;623991;230;26617;-67
2022/08/26 04:28:33;;;;;;;11.95;5.90;;;20.20;99.90;;;;;;623915;230;26626;-66
2022/08/26 04:31:01;;;;;;;8.45;6.45;;;20.20;99.90;;;;;;623728;231;26542;-67
2022/08/26 04:33:29;;;;;;;11.45;6.90;;;20.20;99.90;;;;;;623775;230;26551;-67
2022/08/26 04:36:00;;;;;;;7.50;6.05;;;20.30;99.90;;;;;;623712;231;26584;-67
2022/08/26 04:38:28;;;;;;;9.02;6.10;;;20.30;99.90;;;;;;623693;231;26559;-67
2022/08/26 04:40:55;;;;;;;8.52;5.95;;;20.30;99.90;;;;;;623737;231;26793;-67
2022/08/26 04:43:22;;;;;;;7.40;6.47;;;20.30;99.90;;;;;;623800;231;26571;-67
2022/08/26 04:45:49;;;;;;;10.63;5.95;;;20.40;99.90;;;;;;623698;231;27210;-67
2022/08/26 04:48:16;;;;;;;8.98;6.35;;;20.40;99.90;;;;;;623450;231;26549;-67
2022/08/26 04:50:43;;;;;;;8.60;6.28;;;20.40;99.90;;;;;;623394;231;26816;-67
2022/08/26 04:53:11;;;;;;;7.35;5.97;;;20.40;99.90;;;;;;623427;231;26553;-67
2022/08/26 04:55:38;;;;;;;9.23;6.45;;;20.40;99.90;;;;;;623430;231;26564;-67
2022/08/26 04:58:07;;;;;;;9.95;6.00;;;20.40;99.90;;;;;;623411;231;26607;-67
2022/08/26 05:00:34;;;;;;;7.37;6.37;;;20.50;99.90;;;;;;623316;227;26583;-67
2022/08/26 05:03:02;;;;;;;11.48;6.30;;;20.50;99.90;;;;;;623359;230;26556;-67
2022/08/26 05:05:30;;;;;;;8.40;6.43;;;20.60;99.90;;;;;;623344;230;26572;-67
2022/08/26 05:07:57;;;;;;;10.10;6.45;;;20.60;99.90;;;;;;623323;231;26560;-67
2022/08/26 05:10:24;;;;;;;11.40;6.25;;;20.70;99.90;;;;;;623417;231;26575;-67
2022/08/26 05:12:52;;;;;;;10.68;6.25;;;20.80;99.90;;;;;;623425;231;26567;-67
2022/08/26 05:15:20;;;;;;;8.77;5.60;;;20.90;99.90;;;;;;623453;231;26584;-67
2022/08/26 05:17:49;;;;;;;11.00;6.90;;;20.90;99.90;;;;;;623427;231;26767;-67
2022/08/26 05:20:14;;;;;;;9.45;6.40;;;21.00;99.90;;;;;;623256;227;26581;-67
2022/08/26 05:22:42;;;;;;;8.23;6.10;;;21.10;99.90;;;;;;624528;228;26870;-67
2022/08/26 05:25:09;;;;;;;10.60;6.45;;;21.10;99.90;;;;;;624829;229;26600;-67
2022/08/26 05:27:36;;;;;;;7.03;5.75;;;21.20;99.90;;;;;;624548;230;26637;-67
2022/08/26 05:30:05;;;;;;;8.52;5.97;;;21.20;99.90;;;;;;624297;230;26969;-67
2022/08/26 05:32:31;;;;;;;8.85;5.93;;;21.20;99.90;;;;;;624033;230;26568;-67
2022/08/26 05:34:59;;;;;;;8.05;5.80;;;21.20;99.90;;;;;;624027;230;26816;-67
2022/08/26 05:37:26;;;;;;;10.32;5.97;;;21.30;99.90;;;;;;623976;230;26905;-67
2022/08/26 05:39:53;;;;;;;9.38;6.65;;;21.40;99.90;;;;;;623881;230;26587;-67
2022/08/26 05:42:20;;;;;;;6.70;5.40;;;21.50;99.90;;;;;;623677;230;26880;-67
2022/08/26 05:44:48;;;;;;;9.95;6.85;;;21.60;99.90;;;;;;623678;230;26564;-67
2022/08/26 05:47:15;;;;;;;9.07;6.18;;;21.80;99.90;;;;;;623385;231;27141;-67
2022/08/26 05:49:42;;;;;;;10.80;6.20;;;22.00;99.90;;;;;;623666;231;26544;-68
2022/08/26 05:52:09;;;;;;;10.38;6.15;;;22.20;99.90;;;;;;623745;230;27104;-67
2022/08/26 05:54:36;;;;;;;10.60;6.55;;;22.40;99.90;;;;;;623759;230;26536;-67
2022/08/26 05:57:04;;;;;;;12.18;6.50;;;22.60;99.90;;;;;;623712;230;26799;-67
2022/08/26 05:59:31;;;;;;;8.20;6.10;;;22.70;99.90;;;;;;623486;231;26806;-67
2022/08/26 06:01:58;;;;;;;11.05;6.40;;;22.80;99.90;;;;;;623383;230;26587;-68
2022/08/26 06:04:25;;;;;;;6.28;5.68;;;22.80;99.90;;;;;;623427;231;26805;-67
2022/08/26 06:06:53;;;;;;;8.57;6.40;;;22.90;99.90;;;;;;623324;231;26544;-68
2022/08/26 06:09:21;;;;;;;9.80;6.22;;;22.90;99.90;;;;;;623436;227;26548;-68
2022/08/26 06:11:49;;;;;;;8.88;6.30;;;23.00;99.90;;;;;;623325;230;26568;-67
2022/08/26 06:14:17;;;;;;;11.93;6.50;;;22.90;99.90;;;;;;623307;230;26557;-68
2022/08/26 06:16:45;;;;;;;10.63;7.07;;;22.90;99.90;;;;;;623460;231;26583;-67
2022/08/26 06:19:14;;;;;;;10.40;6.40;;;22.90;99.90;;;;;;623385;230;26565;-67
2022/08/26 06:21:41;;;;;;;10.32;6.85;;;23.00;99.90;;;;;;623340;230;26571;-67
2022/08/26 06:26:41;;;;;;;7.62;5.95;;;23.10;99.90;;;;;;623469;231;26569;-67
2022/08/26 06:29:09;;;;;;;12.73;6.87;;;23.30;99.90;;;;;;623283;230;26556;-67
2022/08/26 06:31:37;;;;;;;5.10;4.60;;;23.40;99.90;;;;;;623418;227;26605;-67
2022/08/26 06:34:04;;;;;;;6.87;5.00;;;23.40;99.90;;;;;;624398;228;26562;-68
2022/08/26 06:36:32;;;;;;;5.93;5.15;;;23.50;99.90;;;;;;624793;230;26559;-66
2022/08/26 06:38:59;;;;;;;7.87;5.12;;;23.60;99.90;;;;;;624400;230;26803;-67
2022/08/26 06:41:26;;;;;;;6.22;5.12;;;23.60;99.90;;;;;;624320;230;26593;-66
2022/08/26 06:43:53;;;;;;;6.50;4.85;;;23.70;99.90;;;;;;624161;230;27185;-67
2022/08/26 06:46:20;;;;;;;5.40;4.90;;;23.80;99.90;;;;;;624092;230;26565;-67
2022/08/26 06:48:47;;;;;;;5.72;4.53;;;23.90;99.90;;;;;;624016;230;26793;-67
2022/08/26 06:51:15;;;;;;;8.77;5.25;;;24.00;99.90;;;;;;624014;230;26580;-67
2022/08/26 06:53:44;;;;;;;5.75;5.25;;;24.10;99.90;;;;;;623681;231;27289;-67
2022/08/26 06:56:09;;;;;;;6.82;5.10;;;24.20;99.90;;;;;;623670;231;26559;-67
2022/08/26 06:58:36;;;;;;;6.82;5.60;;;24.30;99.90;;;;;;623763;231;26790;-67
2022/08/26 07:01:03;;;;;;;8.85;5.45;;;24.40;99.90;;;;;;623741;231;26555;-67
2022/08/26 07:03:31;;;;;;;15.00;7.72;;;24.50;99.90;;;;;;623748;231;26556;-67
2022/08/26 07:06:01;;;;;;;14.27;7.50;;;24.50;99.90;;;;;;623699;231;26552;-67
2022/08/26 07:08:28;;;;;;;15.55;7.82;;;24.60;99.90;;;;;;623738;231;26528;-67
2022/08/26 07:10:55;;;;;;;14.87;7.60;;;24.70;99.90;;;;;;623406;231;26841;-67
2022/08/26 07:13:22;;;;;;;17.83;8.23;;;24.80;99.90;;;;;;623388;230;26564;-67
2022/08/26 07:15:50;;;;;;;13.45;6.50;;;24.90;99.90;;;;;;623394;230;26805;-68
2022/08/26 07:18:17;;;;;;;17.75;7.55;;;25.00;99.90;;;;;;623430;230;26560;-65
2022/08/26 07:20:45;;;;;;;26.00;10.25;;;25.00;99.90;;;;;;623342;226;26813;-65
2022/08/26 07:23:12;;;;;;;68.57;21.17;;;25.10;99.90;;;;;;623490;231;26556;-66
2022/08/26 07:25:40;;;;;;;138.82;36.50;;;25.30;99.90;;;;;;623454;230;26571;-63
2022/08/26 07:28:08;;;;;;;106.55;29.90;;;25.40;99.90;;;;;;623377;230;26557;-64
2022/08/26 07:30:36;;;;;;;106.12;30.80;;;25.50;99.90;;;;;;623338;230;26572;-65
2022/08/26 07:33:03;;;;;;;85.90;27.67;;;25.50;99.90;;;;;;623481;230;26528;-67
2022/08/26 07:35:30;;;;;;;79.30;25.85;;;25.50;99.90;;;;;;621190;230;26810;-64
2022/08/26 07:37:57;;;;;;;70.37;23.25;;;25.60;99.90;;;;;;623831;231;26531;-65
2022/08/26 07:40:25;;;;;;;56.88;22.15;;;25.70;99.90;;;;;;624358;230;26836;-65
2022/08/26 07:42:52;;;;;;;31.23;15.80;;;25.70;99.90;;;;;;624834;230;26577;-65
2022/08/26 07:45:20;;;;;;;49.50;19.17;;;25.80;99.90;;;;;;625525;228;27026;-66
2022/08/26 07:47:47;;;;;;;40.38;17.48;;;25.80;99.90;;;;;;626287;230;26739;-68
2022/08/26 07:50:15;;;;;;;29.92;14.48;;;25.90;99.90;;;;;;625846;230;26562;-67
2022/08/26 07:52:43;;;;;;;34.75;15.20;;;26.10;99.90;;;;;;624957;230;26542;-66
2022/08/26 07:55:11;;;;;;;31.40;13.55;;;26.20;99.90;;;;;;624161;230;26572;-69
2022/08/26 07:57:38;;;;;;;22.23;10.27;;;26.10;99.90;;;;;;624076;230;26633;-67
2022/08/26 08:00:06;;;;;;;16.45;8.73;;;26.20;99.90;;;;;;623941;230;26918;-67
2022/08/26 08:02:33;;;;;;;19.20;8.18;;;26.20;99.90;;;;;;623991;230;26577;-68
2022/08/26 08:05:01;;;;;;;17.05;7.62;;;26.40;99.90;;;;;;623698;229;26559;-67
2022/08/26 08:07:29;;;;;;;15.13;6.95;;;26.40;99.90;;;;;;622396;230;26561;-67
2022/08/26 08:09:59;;;;;;;13.30;7.62;;;26.50;99.60;;;;;;621502;230;26565;-67
2022/08/26 08:12:26;;;;;;;14.40;6.95;;;26.60;99.60;;;;;;622843;230;26575;-67
2022/08/26 08:14:54;;;;;;;13.45;6.78;;;26.70;99.20;;;;;;619970;229;26595;-67
2022/08/26 08:17:22;;;;;;;11.82;7.12;;;26.80;99.10;;;;;;623568;231;26518;-67
2022/08/26 08:19:50;;;;;;;18.75;7.00;;;26.90;98.90;;;;;;623750;230;26528;-67
2022/08/26 08:22:22;;;;;;;22.92;7.43;;;27.00;99.20;;;;;;623480;231;26600;-68
2022/08/26 08:24:48;;;;;;;10.38;6.10;;;27.10;98.70;;;;;;623715;230;26555;-67
2022/08/26 08:27:14;;;;;;;13.10;6.60;;;27.00;98.60;;;;;;619173;230;26625;-67
2022/08/26 08:29:42;;;;;;;14.43;7.03;;;27.20;98.60;;;;;;623436;230;26612;-67
2022/08/26 08:32:09;;;;;;;17.30;6.85;;;27.20;98.40;;;;;;624424;230;26652;-67
2022/08/26 08:34:36;;;;;;;13.18;6.93;;;27.30;98.00;;;;;;624449;230;26614;-67
2022/08/26 08:37:03;;;;;;;20.12;6.75;;;27.40;97.70;;;;;;624465;230;26609;-67
2022/08/26 08:39:30;;;;;;;17.62;6.35;;;27.40;97.20;;;;;;624463;230;26616;-67
2022/08/26 08:42:18;;;;;;;16.00;6.18;;;27.50;96.80;;;;;;621553;230;26616;-69
2022/08/26 08:44:47;;;;;;;15.40;6.43;;;27.70;96.20;;;;;;616811;231;26545;-67
2022/08/26 08:47:32;;;;;;;12.00;5.82;;;27.60;96.20;;;;;;623803;230;26568;-67
2022/08/26 08:50:05;;;;;;;13.93;6.18;;;27.40;96.20;;;;;;619554;227;26851;-67
2022/08/26 08:52:33;;;;;;;14.18;6.25;;;27.40;96.20;;;;;;623117;230;26568;-68
2022/08/26 08:55:00;;;;;;;4.90;3.80;;;27.30;96.50;;;;;;623454;231;26587;-64
2022/08/26 08:57:27;;;;;;;13.57;6.37;;;27.20;96.60;;;;;;624494;228;26827;-68
2022/08/26 08:59:58;;;;;;;16.90;6.68;;;27.20;96.70;;;;;;624195;227;26596;-67
2022/08/26 09:02:26;;;;;;;12.07;6.43;;;27.10;96.60;;;;;;624979;229;26576;-67
2022/08/26 09:05:09;;;;;;;11.05;6.15;;;27.10;97.10;;;;;;626401;229;26804;-67
2022/08/26 09:07:37;;;;;;;15.85;6.10;;;27.10;97.00;;;;;;624927;229;26557;-68
2022/08/26 09:10:04;;;;;;;9.00;5.37;;;27.30;97.10;;;;;;625018;230;26828;-68
2022/08/26 09:12:31;;;;;;;12.02;6.45;;;27.50;96.90;;;;;;622206;229;26610;-68
2022/08/26 09:15:02;;;;;;;11.57;6.07;;;27.60;96.00;;;;;;623923;230;26568;-68
2022/08/26 09:17:33;;;;;;;14.60;6.50;;;27.80;96.10;;;;;;624624;230;26842;-67
2022/08/26 09:20:03;;;;;;;14.65;6.78;;;28.10;95.70;;;;;;624369;230;26784;-68
2022/08/26 09:22:30;;;;;;;10.82;6.65;;;28.40;95.10;;;;;;625660;230;26895;-66
2022/08/26 09:24:57;;;;;;;10.80;5.62;;;28.60;94.80;;;;;;626225;230;26749;-67
2022/08/26 09:27:38;;;;;;;14.00;6.10;;;28.80;94.30;;;;;;626335;230;26555;-67
2022/08/26 09:30:07;;;;;;;18.00;6.45;;;29.10;92.90;;;;;;624589;229;26595;-67
2022/08/26 09:32:35;;;;;;;9.30;4.93;;;29.10;92.90;;;;;;623645;229;26552;-67
2022/08/26 09:35:02;;;;;;;11.63;5.40;;;29.20;92.00;;;;;;623320;230;26802;-67
2022/08/26 09:37:34;;;;;;;14.23;6.43;;;29.50;91.60;;;;;;623214;231;26528;-67
2022/08/26 09:40:17;;;;;;;12.23;6.32;;;29.60;91.70;;;;;;619380;229;26627;-68
2022/08/26 09:42:44;;;;;;;21.42;6.40;;;29.70;90.90;;;;;;621993;230;26640;-67
2022/08/26 09:45:11;;;;;;;14.05;5.80;;;29.80;90.80;;;;;;624454;230;27298;-68
2022/08/26 09:47:40;;;;;;;11.90;5.90;;;29.90;90.20;;;;;;624104;230;26598;-68
2022/08/26 09:50:12;;;;;;;12.32;4.75;;;30.00;89.40;;;;;;623828;230;26862;-68
2022/08/26 09:52:38;;;;;;;12.55;5.60;;;30.10;90.00;;;;;;619815;230;26837;-68
2022/08/26 09:55:12;;;;;;;11.88;5.75;;;30.30;88.90;;;;;;618685;231;26614;-67
2022/08/26 09:57:45;;;;;;;12.07;5.37;;;30.50;87.20;;;;;;620311;230;26816;-68
2022/08/26 10:00:23;;;;;;;14.10;5.45;;;30.60;85.90;;;;;;624312;230;26613;-67
2022/08/26 10:02:50;;;;;;;11.15;5.12;;;30.80;84.70;;;;;;621748;230;26586;-66
2022/08/26 10:05:17;;;;;;;10.05;5.35;;;31.20;84.70;;;;;;619041;231;26578;-67
2022/08/26 10:07:45;;;;;;;16.27;5.93;;;31.10;82.30;;;;;;621794;228;26594;-67
2022/08/26 10:10:14;;;;;;;16.92;6.28;;;30.90;82.00;;;;;;626459;229;26625;-68
2022/08/26 10:12:43;;;;;;;11.95;5.40;;;30.90;82.00;;;;;;625928;230;26541;-68
2022/08/26 10:15:11;;;;;;;16.85;6.00;;;31.10;83.00;;;;;;622116;230;26801;-68
2022/08/26 10:17:43;;;;;;;17.77;5.93;;;31.10;81.70;;;;;;619784;232;26581;-68
2022/08/26 10:20:12;;;;;;;14.52;6.07;;;31.00;81.60;;;;;;621942;230;26560;-67
2022/08/26 10:22:46;;;;;;;14.77;5.90;;;31.10;81.50;;;;;;623220;230;26520;-68
2022/08/26 10:25:14;;;;;;;14.20;6.32;;;31.10;81.50;;;;;;625019;230;26781;-68
2022/08/26 10:27:45;;;;;;;13.48;5.62;;;31.10;81.30;;;;;;621354;230;26653;-67
2022/08/26 10:30:12;;;;;;;14.35;5.43;;;31.00;82.10;;;;;;617943;232;26626;-68
2022/08/26 10:32:42;;;;;;;19.27;6.03;;;31.00;82.00;;;;;;618192;231;26577;-68
2022/08/26 10:35:09;;;;;;;12.27;5.70;;;30.80;81.40;;;;;;618012;232;26625;-68
2022/08/26 10:37:39;;;;;;;17.25;6.25;;;30.90;81.30;;;;;;618791;231;26591;-68
2022/08/26 10:40:07;;;;;;;10.68;5.72;;;31.10;81.00;;;;;;618739;232;26561;-68
2022/08/26 10:42:36;;;;;;;13.82;6.12;;;31.30;80.30;;;;;;618678;232;26531;-68
2022/08/26 10:45:05;;;;;;;14.50;5.80;;;31.40;79.70;;;;;;618488;232;26599;-66
2022/08/26 10:47:35;;;;;;;15.98;6.00;;;31.80;79.30;;;;;;618557;231;26618;-66
2022/08/26 10:50:02;;;;;;;14.00;5.93;;;31.90;77.90;;;;;;618588;232;26605;-66
2022/08/26 10:52:33;;;;;;;14.82;5.93;;;31.90;76.80;;;;;;618766;231;27124;-67
2022/08/26 10:55:01;;;;;;;16.20;6.10;;;31.80;77.30;;;;;;618465;232;26836;-67
2022/08/26 10:57:43;;;;;;;14.15;6.50;;;32.00;77.00;;;;;;618080;232;26620;-66
2022/08/26 11:02:49;;;;;;;20.98;6.03;;;32.10;76.10;;;;;;618735;231;27307;-67
2022/08/26 11:05:15;;;;;;;14.35;6.53;;;32.40;75.70;;;;;;618675;232;26604;-67
2022/08/26 11:07:45;;;;;;;14.48;6.43;;;32.70;74.50;;;;;;618459;232;26874;-67
2022/08/26 11:10:30;;;;;;;19.83;7.00;;;33.20;72.70;;;;;;618623;231;26631;-68
2022/08/26 11:13:02;;;;;;;12.68;5.45;;;33.10;72.60;;;;;;613861;232;26618;-67
2022/08/26 11:15:58;;;;;;;15.30;6.62;;;33.10;72.40;;;;;;618618;232;26620;-68
2022/08/26 11:18:35;;;;;;;15.75;6.60;;;33.00;72.20;;;;;;618704;231;26641;-68
2022/08/26 11:21:02;;;;;;;13.65;6.68;;;32.80;72.40;;;;;;619943;230;26659;-67
2022/08/26 11:23:38;;;;;;;16.50;6.57;;;32.30;73.20;;;;;;619976;232;26825;-67
2022/08/26 11:26:14;;;;;;;17.42;6.07;;;32.10;73.90;;;;;;619035;232;26607;-67
2022/08/26 11:28:44;;;;;;;16.87;6.35;;;31.90;74.50;;;;;;619475;232;26862;-67
2022/08/26 11:31:42;;;;;;;5.62;4.47;;;31.60;75.80;;;;;;619194;231;26586;-65
2022/08/26 11:34:09;;;;;;;17.90;6.47;;;31.60;75.80;;;;;;613634;232;26578;-65
2022/08/26 11:36:39;;;;;;;18.27;7.00;;;31.70;75.60;;;;;;620009;229;26553;-66
2022/08/26 11:39:12;;;;;;;11.82;6.30;;;31.70;75.60;;;;;;621462;230;26577;-66
2022/08/26 11:41:39;;;;;;;18.48;9.63;;;31.70;75.30;;;;;;624043;230;26550;-67
2022/08/26 11:44:08;;;;;;;16.02;7.95;;;31.60;76.00;;;;;;624574;230;26568;-66
2022/08/26 11:46:36;;;;;;;14.20;7.30;;;31.40;76.00;;;;;;625100;230;26532;-66
2022/08/26 11:49:04;;;;;;;14.05;7.25;;;31.30;75.90;;;;;;625094;230;26578;-66
2022/08/26 11:51:31;;;;;;;11.93;7.05;;;31.30;75.90;;;;;;624656;230;26608;-66
2022/08/26 11:54:06;;;;;;;12.20;6.85;;;31.00;77.00;;;;;;624717;230;26608;-66
2022/08/26 11:56:34;;;;;;;12.68;7.47;;;31.00;77.00;;;;;;623518;230;26774;-66
2022/08/26 11:59:02;;;;;;;6.03;3.50;;;30.20;75.10;;;;;;623382;231;26560;-66
2022/08/26 12:01:29;;;;;;;5.07;2.87;;;28.10;73.60;;;;;;623411;231;26585;-65
2022/08/26 12:03:56;;;;;;;11.95;4.00;;;27.10;75.80;;;;;;623324;231;26808;-66
2022/08/26 12:06:24;;;;;;;2.78;2.33;;;26.70;77.40;;;;;;623484;231;26555;-65
2022/08/26 12:08:51;;;;;;;4.72;2.78;;;26.40;80.60;;;;;;623261;230;26560;-66
2022/08/26 12:11:19;;;;;;;4.12;2.97;;;24.60;93.30;;;;;;623327;227;26587;-66
2022/08/26 12:13:57;;;;;;;3.67;3.20;;;24.60;93.20;;;;;;623412;231;26787;-66
2022/08/26 12:16:26;;;;;;;2.40;2.20;;;22.90;99.90;;;;;;623563;231;26581;-65
2022/08/26 12:18:54;;;;;;;3.80;2.80;;;22.80;99.90;;;;;;623448;230;27153;-65
2022/08/26 12:21:25;;;;;;;3.17;2.70;;;22.40;99.90;;;;;;623297;227;26591;-66
2022/08/26 12:23:53;;;;;;;5.07;3.40;;;22.30;99.90;;;;;;623334;230;26557;-65
2022/08/26 12:26:26;;;;;;;5.03;3.00;;;22.20;99.90;;;;;;623408;230;26559;-65
2022/08/26 12:28:54;;;;;;;4.53;2.78;;;22.20;99.90;;;;;;623357;230;26536;-65
2022/08/26 12:31:22;;;;;;;4.95;2.75;;;22.10;99.90;;;;;;624069;228;26591;-65
2022/08/26 12:33:50;;;;;;;3.05;2.80;;;22.20;99.90;;;;;;627394;229;26630;-65
2022/08/26 12:36:17;;;;;;;3.65;2.80;;;22.10;99.90;;;;;;627102;229;26655;-65
2022/08/26 12:38:45;;;;;;;5.43;2.70;;;22.00;99.90;;;;;;625093;230;26618;-65
2022/08/26 12:41:12;;;;;;;6.65;3.15;;;22.00;99.90;;;;;;625201;230;26579;-65
2022/08/26 12:43:40;;;;;;;4.00;2.50;;;21.80;99.90;;;;;;625025;230;26804;-65
2022/08/26 12:46:10;;;;;;;5.32;3.20;;;21.80;99.90;;;;;;625065;229;26599;-65
2022/08/26 12:48:37;;;;;;;5.53;2.78;;;21.80;99.90;;;;;;625001;230;26798;-65
2022/08/26 12:51:05;;;;;;;2.75;2.50;;;21.80;99.90;;;;;;624583;230;26607;-65
2022/08/26 12:53:33;;;;;;;3.55;3.00;;;21.70;99.90;;;;;;623898;230;26809;-65
2022/08/26 12:56:03;;;;;;;3.50;2.80;;;21.70;99.90;;;;;;626228;230;26818;-65
2022/08/26 12:58:31;;;;;;;4.50;2.65;;;21.70;99.90;;;;;;626197;230;26584;-65
2022/08/26 13:01:18;;;;;;;3.03;2.33;;;21.50;99.90;;;;;;623524;227;26554;-65